KR-0431 weather

Busan Transportation Corporation Heliport
Busan, Busan Gwang'yeogsi, South Korea

Public forecast

Using degrees Celsius for public forecast. Weather courtesy of forecast.io.

METAR (pilot weather report)

Closest report is Gimhae International Airport, 6.2 nm (11.6 km) WNW. Retrieved 2019/09/15 12:00 UTC (29 minutes ago):

RKPK 151200Z 01010KT CAVOK 23/17 Q1010

TAF (pilot weather forecast)

Closest forecast is Gimhae International Airport, 6.2 nm (11.6 km) WNW. Retrieved 2019/09/15 12:00 UTC (29 minutes ago):

TAF RKPK 151100Z 1512/1618 03008KT 9999 SCT030 SCT200 TN21/1521Z TX28/1606Z BECMG 1602/1603 03012KT BECMG 1609/1610 03008KT